Time;durP1;ratioP1;P1;durP2;ratioP2;P2;SDS_P1;SDS_P2;PMS_P1;PMS_P2;Temp;Humidity;BMP_temperature;BMP_pressure;BME280_temperature;BME280_humidity;BME280_pressure;Samples;Min_cycle;Max_cycle;Signal;HPM_P1;HPM_P2
2022/07/15 00:01:42;;;;;;;7.13;2.35;;;21.80;70.90;;;;;;5055579;28;20056;-67
2022/07/15 00:04:07;;;;;;;6.10;2.50;;;21.70;71.20;;;;;;5055373;28;20029;-68
2022/07/15 00:06:33;;;;;;;7.25;2.33;;;21.60;71.40;;;;;;5053992;28;20024;-67
2022/07/15 00:08:58;;;;;;;4.82;1.98;;;21.50;71.60;;;;;;5053575;28;20037;-67
2022/07/15 00:11:24;;;;;;;4.00;2.45;;;21.50;71.90;;;;;;5054995;28;20028;-67
2022/07/15 00:13:49;;;;;;;8.18;2.42;;;21.40;72.10;;;;;;5055085;28;20039;-67
2022/07/15 00:16:15;;;;;;;7.55;2.92;;;21.30;72.20;;;;;;5054744;28;20381;-67
2022/07/15 00:18:41;;;;;;;4.35;2.13;;;21.30;72.50;;;;;;5053741;28;20033;-67
2022/07/15 00:21:07;;;;;;;4.28;2.17;;;21.20;72.50;;;;;;5053646;28;20075;-67
2022/07/15 00:23:32;;;;;;;;;;;21.20;72.60;;;;;;5054848;28;20036;-67
2022/07/15 00:25:58;;;;;;;3.97;1.92;;;21.20;73.30;;;;;;5054553;28;19909;-67
2022/07/15 00:28:24;;;;;;;5.07;2.10;;;21.20;72.70;;;;;;5054159;28;20025;-67
2022/07/15 00:30:50;;;;;;;4.75;2.00;;;21.20;72.80;;;;;;5053673;28;20468;-67
2022/07/15 00:33:16;;;;;;;4.47;1.95;;;21.20;72.70;;;;;;5053953;28;20078;-67
2022/07/15 00:35:41;;;;;;;5.50;2.35;;;21.10;72.70;;;;;;5053547;28;20033;-67
2022/07/15 00:38:09;;;;;;;3.58;2.20;;;21.10;72.70;;;;;;5053997;28;20032;-67
2022/07/15 00:40:42;;;;;;;4.18;2.00;;;21.00;72.90;;;;;;5055579;28;20029;-67
2022/07/15 00:43:08;;;;;;;5.97;1.95;;;21.00;73.10;;;;;;5053880;28;20048;-67
2022/07/15 00:45:34;;;;;;;5.82;1.88;;;20.90;73.30;;;;;;5052971;28;20013;-67
2022/07/15 00:47:59;;;;;;;4.25;2.00;;;21.00;73.60;;;;;;5054096;28;20037;-67
2022/07/15 00:50:27;;;;;;;4.07;1.92;;;20.90;73.80;;;;;;5054052;28;20029;-67
2022/07/15 00:52:55;;;;;;;3.67;1.85;;;20.80;73.90;;;;;;5054067;28;20083;-67
2022/07/15 00:55:22;;;;;;;4.80;2.03;;;20.80;74.20;;;;;;5054450;28;20370;-66
2022/07/15 00:57:49;;;;;;;5.63;2.38;;;20.70;74.50;;;;;;5055905;28;20029;-67
2022/07/15 01:00:16;;;;;;;3.65;1.90;;;20.50;74.70;;;;;;5055363;28;20020;-67
2022/07/15 01:02:44;;;;;;;4.45;2.08;;;20.50;75.20;;;;;;5055856;28;20021;-67
2022/07/15 01:05:10;;;;;;;5.25;2.00;;;20.50;75.40;;;;;;5052958;28;20481;-66
2022/07/15 01:07:38;;;;;;;6.40;2.55;;;20.40;75.30;;;;;;5052650;28;20025;-66
2022/07/15 01:10:04;;;;;;;5.38;1.80;;;20.40;75.30;;;;;;5054162;28;20052;-67
2022/07/15 01:12:30;;;;;;;8.68;2.33;;;20.40;75.10;;;;;;5053426;28;20052;-67
2022/07/15 01:14:56;;;;;;;4.80;2.40;;;20.30;75.10;;;;;;5053959;28;20375;-67
2022/07/15 01:17:21;;;;;;;8.30;2.13;;;20.30;75.20;;;;;;5052911;28;20058;-67
2022/07/15 01:19:47;;;;;;;4.07;1.75;;;20.20;75.40;;;;;;5052257;28;20110;-67
2022/07/15 01:22:13;;;;;;;3.35;2.30;;;20.20;75.60;;;;;;5053736;28;20052;-67
2022/07/15 01:24:38;;;;;;;3.72;2.28;;;20.20;75.60;;;;;;5053600;28;20025;-66
2022/07/15 01:27:04;;;;;;;4.28;2.40;;;20.10;76.10;;;;;;5053561;28;20021;-67
2022/07/15 01:29:30;;;;;;;3.85;2.15;;;20.00;76.50;;;;;;5053035;28;20029;-67
2022/07/15 01:31:55;;;;;;;3.38;2.10;;;19.90;76.90;;;;;;5054361;28;20417;-66
2022/07/15 01:34:21;;;;;;;4.65;2.28;;;19.80;77.20;;;;;;5053584;28;20100;-67
2022/07/15 01:36:46;;;;;;;2.88;2.05;;;19.70;77.40;;;;;;5055649;28;20504;-67
2022/07/15 01:39:12;;;;;;;4.63;2.00;;;19.70;77.50;;;;;;5056753;28;20029;-67
2022/07/15 01:41:38;;;;;;;2.95;1.98;;;19.70;77.20;;;;;;5055014;28;20055;-67
2022/07/15 01:44:04;;;;;;;5.97;2.03;;;19.60;77.10;;;;;;5054408;28;20082;-67
2022/07/15 01:46:29;;;;;;;5.20;2.20;;;19.60;76.90;;;;;;5056961;28;20064;-68
2022/07/15 01:51:39;;;;;;;4.15;1.77;;;19.50;77.30;;;;;;5058311;28;20398;-67
2022/07/15 01:54:05;;;;;;;5.93;1.70;;;19.30;77.50;;;;;;5058200;28;20025;-68
2022/07/15 01:56:30;;;;;;;5.53;2.22;;;19.10;78.00;;;;;;5055900;28;20044;-68
2022/07/15 01:58:56;;;;;;;4.93;1.90;;;19.00;78.60;;;;;;5055247;28;20033;-67
2022/07/15 02:01:22;;;;;;;5.97;2.05;;;18.90;79.00;;;;;;5055123;28;20033;-67
2022/07/15 02:03:47;;;;;;;8.15;2.20;;;18.90;79.40;;;;;;5055314;28;20025;-67
2022/07/15 02:06:13;;;;;;;5.03;2.00;;;18.80;79.70;;;;;;5055667;28;20037;-67
2022/07/15 02:08:39;;;;;;;7.95;1.98;;;18.80;79.90;;;;;;5054398;28;20087;-66
2022/07/15 02:11:05;;;;;;;5.55;2.30;;;18.70;80.10;;;;;;5053665;28;20039;-67
2022/07/15 02:13:30;;;;;;;6.68;2.15;;;18.80;80.30;;;;;;5053076;28;20104;-67
2022/07/15 02:15:56;;;;;;;4.05;2.30;;;18.80;80.20;;;;;;5053005;28;20029;-67
2022/07/15 02:18:22;;;;;;;6.07;2.58;;;18.80;80.20;;;;;;5052811;28;20032;-67
2022/07/15 02:20:47;;;;;;;6.55;2.72;;;18.90;80.20;;;;;;5052723;28;20025;-67
2022/07/15 02:23:13;;;;;;;7.38;2.58;;;18.90;80.00;;;;;;5052910;28;20053;-67
2022/07/15 02:25:38;;;;;;;4.07;2.13;;;19.00;79.90;;;;;;5052815;28;20028;-67
2022/07/15 02:28:05;;;;;;;5.32;2.63;;;19.10;80.50;;;;;;5052483;28;20029;-67
2022/07/15 02:30:34;;;;;;;4.65;2.28;;;19.10;79.90;;;;;;5054115;28;20575;-66
2022/07/15 02:33:00;;;;;;;5.88;2.15;;;19.20;79.80;;;;;;5056759;28;20395;-67
2022/07/15 02:35:26;;;;;;;5.32;2.47;;;19.20;79.70;;;;;;5056969;28;20048;-67
2022/07/15 02:37:52;;;;;;;4.50;2.40;;;19.10;79.70;;;;;;5056489;28;20037;-67
2022/07/15 02:40:17;;;;;;;3.65;2.30;;;19.10;79.40;;;;;;5056852;28;20033;-67
2022/07/15 02:42:48;;;;;;;5.63;2.20;;;19.10;79.60;;;;;;5056905;28;20031;-67
2022/07/15 02:45:14;;;;;;;4.05;2.38;;;19.10;79.80;;;;;;5056609;28;20021;-67
2022/07/15 02:47:39;;;;;;;7.30;2.38;;;19.10;79.90;;;;;;5056427;28;20397;-66
2022/07/15 02:50:05;;;;;;;6.97;2.47;;;19.10;79.90;;;;;;5056645;28;20543;-66
2022/07/15 02:52:31;;;;;;;5.75;2.60;;;19.10;79.80;;;;;;5055494;28;20464;-70
2022/07/15 02:54:56;;;;;;;5.82;2.50;;;19.10;79.90;;;;;;5056817;28;20024;-67
2022/07/15 02:57:22;;;;;;;4.32;2.20;;;19.20;79.70;;;;;;5055089;28;20029;-65
2022/07/15 02:59:47;;;;;;;5.25;2.42;;;19.10;79.40;;;;;;5055211;28;20029;-65
2022/07/15 03:02:13;;;;;;;6.10;1.92;;;19.10;79.60;;;;;;5055396;28;20025;-65
2022/07/15 03:04:39;;;;;;;4.10;2.05;;;19.00;79.80;;;;;;5056605;28;20370;-65
2022/07/15 03:07:04;;;;;;;3.35;2.17;;;19.10;79.80;;;;;;5056669;28;20107;-65
2022/07/15 03:09:30;;;;;;;6.78;2.22;;;19.10;79.90;;;;;;5056197;28;20119;-65
2022/07/15 03:11:55;;;;;;;2.80;1.77;;;19.10;80.00;;;;;;5056849;28;20018;-65
2022/07/15 03:14:21;;;;;;;4.13;2.00;;;19.10;79.90;;;;;;5055152;28;20426;-65
2022/07/15 03:16:46;;;;;;;7.75;2.40;;;19.10;80.00;;;;;;5056430;28;20029;-65
2022/07/15 03:19:12;;;;;;;5.30;2.25;;;19.00;80.00;;;;;;5056067;28;20033;-65
2022/07/15 03:21:37;;;;;;;3.85;2.03;;;19.00;80.40;;;;;;5055946;28;20021;-66
2022/07/15 03:24:03;;;;;;;3.92;2.00;;;19.00;80.90;;;;;;5056264;28;20033;-66
2022/07/15 03:26:29;;;;;;;2.58;1.95;;;18.80;81.40;;;;;;5055615;28;20024;-66
2022/07/15 03:28:55;;;;;;;4.43;2.10;;;18.80;81.70;;;;;;5054439;28;20032;-65
2022/07/15 03:31:20;;;;;;;5.03;2.50;;;18.70;82.10;;;;;;5055722;28;20066;-65
2022/07/15 03:33:46;;;;;;;3.90;2.10;;;18.70;82.30;;;;;;5056237;28;20486;-65
2022/07/15 03:36:11;;;;;;;5.20;2.50;;;18.70;82.50;;;;;;5057880;28;20385;-65
2022/07/15 03:38:37;;;;;;;5.97;2.20;;;18.60;82.60;;;;;;5056296;28;20033;-65
2022/07/15 03:41:03;;;;;;;4.85;2.42;;;18.60;82.70;;;;;;5054493;28;20036;-65
2022/07/15 03:43:30;;;;;;;7.65;2.45;;;18.60;82.70;;;;;;5054680;28;20021;-65
2022/07/15 03:45:56;;;;;;;7.60;2.55;;;18.60;83.00;;;;;;5057428;28;20031;-65
2022/07/15 03:48:22;;;;;;;7.15;2.72;;;18.60;83.30;;;;;;5055780;28;20028;-65
2022/07/15 03:50:47;;;;;;;5.55;2.42;;;18.60;83.50;;;;;;5055968;28;20489;-65
2022/07/15 03:53:13;;;;;;;7.20;2.45;;;18.50;83.50;;;;;;5054531;28;20086;-65
2022/07/15 03:55:39;;;;;;;6.45;3.13;;;18.50;83.80;;;;;;5055258;28;20449;-65
2022/07/15 03:58:05;;;;;;;7.75;2.75;;;18.60;84.00;;;;;;5055881;28;20446;-65
2022/07/15 04:00:31;;;;;;;5.55;3.30;;;18.60;83.70;;;;;;5054512;28;20111;-65
2022/07/15 04:02:57;;;;;;;5.07;2.95;;;18.60;84.70;;;;;;5055754;28;20056;-65
2022/07/15 04:05:22;;;;;;;3.58;2.55;;;18.50;84.60;;;;;;5054738;28;20029;-65
2022/07/15 04:07:48;;;;;;;6.38;3.05;;;18.40;84.80;;;;;;5055234;28;20055;-65
2022/07/15 04:10:14;;;;;;;6.55;2.70;;;18.30;85.30;;;;;;5055110;28;20048;-65
2022/07/15 04:12:41;;;;;;;5.15;2.92;;;18.30;85.80;;;;;;5054828;28;20465;-67
2022/07/15 04:15:07;;;;;;;7.95;3.10;;;18.30;86.10;;;;;;5053477;28;20032;-65
2022/07/15 04:17:33;;;;;;;;;;;18.20;86.50;;;;;;5055390;28;20442;-66
2022/07/15 04:19:58;;;;;;;6.40;3.25;;;18.20;87.10;;;;;;5054934;28;19962;-66
2022/07/15 04:22:24;;;;;;;6.13;3.17;;;18.10;87.30;;;;;;5053833;28;20071;-66
2022/07/15 04:24:49;;;;;;;4.90;2.97;;;18.10;87.60;;;;;;5055590;28;20035;-68
2022/07/15 04:27:15;;;;;;;5.63;2.97;;;18.10;87.70;;;;;;5056052;28;20029;-67
2022/07/15 04:29:41;;;;;;;8.18;3.03;;;18.00;88.00;;;;;;5054963;28;20036;-67
2022/07/15 04:32:06;;;;;;;7.10;2.90;;;18.00;88.50;;;;;;5053839;28;20025;-68
2022/07/15 04:34:32;;;;;;;3.95;2.92;;;17.90;88.80;;;;;;5054542;28;20033;-69
2022/07/15 04:36:58;;;;;;;6.82;3.10;;;18.00;89.10;;;;;;5054572;28;20029;-66
2022/07/15 04:39:23;;;;;;;9.20;3.08;;;18.00;89.40;;;;;;5055673;28;20466;-68
2022/07/15 04:41:51;;;;;;;4.82;2.92;;;18.00;90.00;;;;;;5052929;28;20071;-68
2022/07/15 04:44:17;;;;;;;5.82;2.78;;;17.90;90.10;;;;;;5054023;28;20150;-67
2022/07/15 04:46:43;;;;;;;7.13;3.00;;;17.90;90.20;;;;;;5054206;28;20036;-69
2022/07/15 04:51:52;;;;;;;5.78;2.90;;;17.80;90.80;;;;;;5055350;28;20035;-68
2022/07/15 04:54:18;;;;;;;6.07;2.97;;;17.80;91.10;;;;;;5053347;28;20024;-68
2022/07/15 04:56:43;;;;;;;8.02;3.08;;;17.60;91.40;;;;;;5053359;28;20025;-67
2022/07/15 04:59:09;;;;;;;6.70;2.80;;;17.50;91.80;;;;;;5054520;28;20083;-66
2022/07/15 05:01:35;;;;;;;7.90;3.45;;;17.40;92.20;;;;;;5055382;28;20260;-63
2022/07/15 05:04:01;;;;;;;7.60;3.10;;;17.50;92.30;;;;;;5054198;28;20033;-63
2022/07/15 05:06:27;;;;;;;;;;;17.40;92.40;;;;;;5054078;28;20432;-64
2022/07/15 05:08:52;;;;;;;5.60;2.85;;;17.40;92.30;;;;;;5054445;28;19912;-67
2022/07/15 05:11:18;;;;;;;5.22;2.78;;;17.50;92.50;;;;;;5053708;28;20029;-66
2022/07/15 05:13:44;;;;;;;9.90;3.47;;;17.60;92.50;;;;;;5055075;28;20078;-66
2022/07/15 05:16:09;;;;;;;9.35;3.45;;;17.60;92.60;;;;;;5054257;28;20385;-65
2022/07/15 05:18:36;;;;;;;5.70;2.67;;;17.60;92.60;;;;;;5054035;28;20120;-66
2022/07/15 05:21:03;;;;;;;11.30;3.25;;;17.60;92.80;;;;;;5054127;28;20021;-66
2022/07/15 05:23:28;;;;;;;10.70;3.47;;;17.60;93.00;;;;;;5052480;28;20382;-66
2022/07/15 05:25:54;;;;;;;9.07;3.47;;;17.60;93.10;;;;;;5052943;28;20021;-66
2022/07/15 05:28:19;;;;;;;7.13;3.38;;;17.60;93.30;;;;;;5053924;28;20316;-67
2022/07/15 05:30:45;;;;;;;7.53;3.00;;;17.70;93.40;;;;;;5053992;28;20060;-66
2022/07/15 05:33:11;;;;;;;7.25;3.00;;;17.70;93.30;;;;;;5054053;28;20519;-67
2022/07/15 05:35:36;;;;;;;7.80;3.22;;;17.70;93.50;;;;;;5052236;28;20033;-66
2022/07/15 05:38:02;;;;;;;9.25;3.90;;;17.70;93.80;;;;;;5053906;28;20481;-67
2022/07/15 05:40:29;;;;;;;6.90;3.28;;;17.70;94.00;;;;;;5052829;28;20032;-67
2022/07/15 05:42:54;;;;;;;5.43;2.95;;;17.70;94.10;;;;;;5055439;28;20021;-66
2022/07/15 05:45:20;;;;;;;8.35;3.38;;;17.90;93.50;;;;;;5052829;28;20028;-66
2022/07/15 05:47:48;;;;;;;5.70;2.53;;;18.10;93.40;;;;;;5052585;28;20033;-67
2022/07/15 05:50:13;;;;;;;6.95;3.00;;;18.30;92.70;;;;;;5054103;28;20025;-65
2022/07/15 05:52:39;;;;;;;6.40;2.83;;;18.30;92.30;;;;;;5053428;28;20033;-65
2022/07/15 05:55:05;;;;;;;5.47;2.65;;;18.50;91.70;;;;;;5054248;28;20338;-63
2022/07/15 05:57:32;;;;;;;7.50;2.58;;;18.20;91.80;;;;;;5055485;28;20105;-61
2022/07/15 05:59:57;;;;;;;6.35;2.72;;;18.30;91.90;;;;;;5054196;28;20029;-64
2022/07/15 06:02:23;;;;;;;7.13;2.97;;;18.30;91.50;;;;;;5055645;28;20036;-68
2022/07/15 06:04:48;;;;;;;3.97;2.42;;;18.30;91.30;;;;;;5053757;28;20255;-67
2022/07/15 06:07:14;;;;;;;6.00;2.25;;;18.50;91.20;;;;;;5057627;28;20064;-67
2022/07/15 06:09:40;;;;;;;8.30;3.03;;;18.50;90.70;;;;;;5057032;28;20040;-67
2022/07/15 06:12:05;;;;;;;5.78;2.10;;;18.60;90.70;;;;;;5057638;28;20033;-67
2022/07/15 06:14:31;;;;;;;6.55;2.42;;;18.70;90.00;;;;;;5056876;28;20060;-68
2022/07/15 06:16:56;;;;;;;3.88;2.00;;;18.80;89.80;;;;;;5057118;28;20116;-68
2022/07/15 06:19:22;;;;;;;9.65;3.25;;;18.90;89.80;;;;;;5056968;28;20052;-69
2022/07/15 06:21:47;;;;;;;4.95;2.35;;;19.00;90.20;;;;;;5057775;28;20025;-70
2022/07/15 06:24:13;;;;;;;3.58;2.42;;;19.20;90.00;;;;;;5057801;28;20438;-69
2022/07/15 06:26:39;;;;;;;5.93;1.92;;;19.30;87.40;;;;;;5059245;28;20056;-67
2022/07/15 06:29:05;;;;;;;;;;;19.40;87.20;;;;;;5058977;28;20158;-68
2022/07/15 06:31:30;;;;;;;6.00;2.28;;;19.60;86.30;;;;;;5058537;28;19934;-66
2022/07/15 06:33:59;;;;;;;5.82;2.10;;;19.70;85.60;;;;;;5057033;28;20032;-67
2022/07/15 06:36:25;;;;;;;6.95;2.05;;;19.80;84.30;;;;;;5056855;28;20374;-68
2022/07/15 06:38:50;;;;;;;4.03;2.70;;;19.90;84.00;;;;;;5056755;28;20020;-67
2022/07/15 06:41:16;;;;;;;5.00;2.05;;;19.80;83.90;;;;;;5056865;28;20025;-68
2022/07/15 06:43:43;;;;;;;5.32;1.85;;;19.80;83.80;;;;;;5058250;28;20028;-67
2022/07/15 06:46:09;;;;;;;5.97;1.92;;;19.80;83.90;;;;;;5056522;28;20040;-70
2022/07/15 06:48:34;;;;;;;5.95;2.22;;;20.00;83.50;;;;;;5055117;28;20029;-68
2022/07/15 06:51:00;;;;;;;4.63;1.95;;;20.00;83.10;;;;;;5055274;28;20029;-69
2022/07/15 06:53:26;;;;;;;4.93;1.98;;;20.00;82.90;;;;;;5056724;28;20025;-69
2022/07/15 06:55:52;;;;;;;3.30;1.75;;;20.00;82.50;;;;;;5056706;28;20036;-69
2022/07/15 06:58:17;;;;;;;4.25;2.60;;;20.10;82.60;;;;;;5056937;28;20045;-69
2022/07/15 07:00:43;;;;;;;8.18;1.95;;;20.10;82.30;;;;;;5058296;28;20100;-69
2022/07/15 07:03:09;;;;;;;4.13;2.30;;;20.20;81.80;;;;;;5059678;28;20081;-70
2022/07/15 07:05:34;;;;;;;4.65;1.98;;;20.30;81.80;;;;;;5060864;28;20061;-70
2022/07/15 07:08:00;;;;;;;5.65;2.10;;;20.40;82.10;;;;;;5061216;28;20029;-68
2022/07/15 07:10:28;;;;;;;5.20;1.50;;;20.40;81.10;;;;;;5078488;22;20504;-69
2022/07/15 07:12:54;;;;;;;6.43;1.85;;;20.50;80.70;;;;;;5056052;28;20020;-69
2022/07/15 07:15:21;;;;;;;5.85;1.70;;;20.60;80.40;;;;;;5054313;28;20484;-68
2022/07/15 07:17:46;;;;;;;4.20;1.90;;;20.70;80.60;;;;;;5055427;28;20025;-70
2022/07/15 07:20:12;;;;;;;4.43;1.77;;;20.80;80.20;;;;;;5055713;28;20083;-69
2022/07/15 07:22:38;;;;;;;5.18;1.90;;;20.80;79.70;;;;;;5055581;28;20050;-69
2022/07/15 07:25:04;;;;;;;6.53;1.98;;;20.80;79.40;;;;;;5055871;28;20021;-69
2022/07/15 07:27:29;;;;;;;5.43;2.05;;;20.90;79.60;;;;;;5058019;28;20033;-70
2022/07/15 07:29:55;;;;;;;3.67;1.80;;;21.00;79.60;;;;;;5057290;28;20584;-70
2022/07/15 07:32:20;;;;;;;6.68;1.77;;;21.00;78.90;;;;;;5055978;28;20029;-71
2022/07/15 07:34:46;;;;;;;4.00;1.90;;;21.10;79.20;;;;;;5056695;28;20037;-70
2022/07/15 07:37:11;;;;;;;6.30;1.95;;;21.20;78.70;;;;;;5055545;28;20052;-70
2022/07/15 07:39:37;;;;;;;6.10;2.13;;;21.30;78.40;;;;;;5055334;28;20057;-70
2022/07/15 07:42:03;;;;;;;3.38;1.45;;;21.40;77.60;;;;;;5055307;28;20047;-70
2022/07/15 07:44:28;;;;;;;2.90;1.70;;;21.60;77.40;;;;;;5055363;28;20581;-69
2022/07/15 07:46:54;;;;;;;4.63;2.08;;;21.70;77.30;;;;;;5053835;28;20029;-70
2022/07/15 07:49:20;;;;;;;7.63;2.08;;;21.70;75.90;;;;;;5055128;28;20060;-69
2022/07/15 07:51:45;;;;;;;6.70;1.98;;;21.70;76.50;;;;;;5055430;28;20037;-70
2022/07/15 07:54:12;;;;;;;6.00;1.70;;;21.80;75.20;;;;;;5055475;28;20036;-70
2022/07/15 07:56:37;;;;;;;3.03;1.50;;;21.90;75.00;;;;;;5054419;28;20062;-70
2022/07/15 07:59:03;;;;;;;11.40;2.05;;;22.00;74.40;;;;;;5053738;28;20060;-69
2022/07/15 08:01:28;;;;;;;2.80;1.48;;;22.30;74.00;;;;;;5055510;28;20044;-69
2022/07/15 08:03:54;;;;;;;3.63;1.50;;;22.40;73.70;;;;;;5056447;28;20119;-70
2022/07/15 08:06:22;;;;;;;5.30;1.27;;;22.60;72.90;;;;;;5055932;28;20079;-70
2022/07/15 08:08:48;;;;;;;4.95;1.52;;;22.70;72.00;;;;;;5055002;28;20123;-70
2022/07/15 08:11:14;;;;;;;7.18;1.73;;;22.90;71.60;;;;;;5056140;28;20448;-70
2022/07/15 08:13:39;;;;;;;3.85;1.63;;;22.90;71.30;;;;;;5058560;28;20032;-70
2022/07/15 08:16:06;;;;;;;3.03;1.58;;;23.30;70.40;;;;;;5062492;28;20033;-70
2022/07/15 08:18:32;;;;;;;4.70;1.38;;;24.60;68.20;;;;;;5060693;28;20029;-71
2022/07/15 08:20:58;;;;;;;;;;;26.70;64.20;;;;;;5062378;28;20043;-71
2022/07/15 08:23:23;;;;;;;2.90;1.33;;;28.60;60.40;;;;;;5062511;28;19905;-71
2022/07/15 08:25:51;;;;;;;6.72;1.42;;;29.90;58.40;;;;;;5058293;28;20541;-71
2022/07/15 08:28:17;;;;;;;6.35;1.63;;;30.80;57.10;;;;;;5055987;28;20025;-69
2022/07/15 08:30:44;;;;;;;5.75;1.67;;;32.20;55.20;;;;;;5054776;28;20028;-70
2022/07/15 08:33:09;;;;;;;3.83;1.10;;;33.50;53.60;;;;;;5054699;28;20120;-69
2022/07/15 08:35:36;;;;;;;3.55;1.40;;;34.70;51.20;;;;;;5054681;28;20053;-69
2022/07/15 08:38:06;;;;;;;4.20;1.38;;;34.90;50.80;;;;;;5053118;28;20064;-71
2022/07/15 08:40:32;;;;;;;5.38;1.70;;;34.90;50.10;;;;;;5053657;28;20112;-69
2022/07/15 08:42:58;;;;;;;3.58;1.40;;;35.30;49.70;;;;;;5054294;28;20095;-70
2022/07/15 08:45:23;;;;;;;3.78;1.50;;;35.60;48.90;;;;;;5053944;28;20386;-70
2022/07/15 08:47:51;;;;;;;3.83;1.30;;;35.70;49.00;;;;;;5054030;28;20028;-69
2022/07/15 08:50:18;;;;;;;7.38;1.77;;;35.80;49.00;;;;;;5054066;28;20025;-70
2022/07/15 08:52:45;;;;;;;3.78;1.88;;;35.70;48.50;;;;;;5054341;28;20040;-70
2022/07/15 08:55:12;;;;;;;3.08;1.35;;;36.30;48.20;;;;;;5053455;28;20485;-72
2022/07/15 08:57:38;;;;;;;3.90;1.48;;;36.80;47.30;;;;;;5054680;28;20057;-74
2022/07/15 09:00:10;;;;;;;3.80;1.58;;;37.10;47.70;;;;;;5054193;28;20362;-75
2022/07/15 09:02:37;;;;;;;4.38;1.40;;;37.00;47.00;;;;;;5053232;28;20017;-72
2022/07/15 09:05:27;;;;;;;6.03;1.40;;;37.20;47.20;;;;;;5053979;28;20100;-72
2022/07/15 09:07:53;;;;;;;3.10;1.50;;;37.30;47.30;;;;;;5052665;28;20028;-72
2022/07/15 09:10:24;;;;;;;7.80;1.60;;;37.50;46.90;;;;;;5053459;28;20037;-72
2022/07/15 09:12:53;;;;;;;4.25;1.52;;;38.40;45.90;;;;;;5054733;28;20087;-71
2022/07/15 09:15:34;;;;;;;4.05;1.45;;;38.70;45.70;;;;;;5052379;28;20029;-72
2022/07/15 09:18:24;;;;;;;3.22;1.45;;;38.90;45.40;;;;;;5053781;28;20061;-73
2022/07/15 09:20:50;;;;;;;18.90;2.97;;;38.40;45.50;;;;;;5046137;28;20059;-72
2022/07/15 09:23:29;;;;;;;3.63;1.63;;;38.90;44.90;;;;;;5054858;28;20079;-71
2022/07/15 09:26:18;;;;;;;7.60;1.80;;;38.40;45.40;;;;;;5053843;28;20045;-71
2022/07/15 09:28:44;;;;;;;4.28;1.80;;;38.90;45.30;;;;;;5046143;28;20147;-72
2022/07/15 09:34:00;;;;;;;2.25;1.38;;;38.80;44.60;;;;;;5053862;28;20551;-71
2022/07/15 09:36:28;;;;;;;5.45;1.75;;;38.80;43.80;;;;;;5052087;28;20029;-72
2022/07/15 09:39:05;;;;;;;5.70;1.85;;;38.50;44.50;;;;;;5051620;28;20051;-71
2022/07/15 09:41:36;;;;;;;2.20;1.50;;;38.70;44.40;;;;;;5053345;28;20462;-71
2022/07/15 09:44:05;;;;;;;2.28;1.48;;;37.90;44.10;;;;;;5053285;28;20013;-71
2022/07/15 09:46:55;;;;;;;4.40;2.00;;;36.80;45.70;;;;;;5053080;28;20101;-71
2022/07/15 09:49:26;;;;;;;5.03;1.60;;;37.40;45.10;;;;;;5053006;28;20033;-71
2022/07/15 09:51:58;;;;;;;4.32;1.67;;;38.00;45.50;;;;;;5053058;28;20039;-71
2022/07/15 09:54:32;;;;;;;2.92;1.60;;;37.60;44.70;;;;;;5052945;28;20029;-71
2022/07/15 09:57:00;;;;;;;5.00;1.42;;;38.00;44.60;;;;;;5053298;28;20378;-71
2022/07/15 09:59:26;;;;;;;8.15;1.90;;;37.80;45.00;;;;;;5051747;28;20116;-71
2022/07/15 10:01:52;;;;;;;3.13;1.70;;;37.20;45.20;;;;;;5053164;28;20478;-70
2022/07/15 10:04:23;;;;;;;2.80;1.40;;;38.00;44.60;;;;;;5053178;28;20104;-71
2022/07/15 10:06:51;;;;;;;2.78;1.50;;;37.70;44.40;;;;;;5053073;28;20017;-71
2022/07/15 10:09:29;;;;;;;4.32;1.63;;;36.80;44.70;;;;;;5055121;28;20076;-71
2022/07/15 10:11:59;;;;;;;6.72;1.85;;;37.40;45.20;;;;;;5059905;28;20063;-71
2022/07/15 10:14:33;;;;;;;3.13;1.30;;;37.80;44.70;;;;;;5058175;28;20040;-71
2022/07/15 10:17:31;;;;;;;2.97;1.67;;;37.80;44.20;;;;;;5056474;28;20595;-71
2022/07/15 10:20:17;;;;;;;3.08;1.38;;;37.90;44.60;;;;;;5054258;28;20021;-71
2022/07/15 10:22:59;;;;;;;6.18;1.70;;;36.70;45.20;;;;;;5052908;28;20031;-70
2022/07/15 10:25:53;;;;;;;4.20;1.33;;;36.70;45.20;;;;;;5053233;28;20032;-71
2022/07/15 10:28:43;;;;;;;4.53;1.38;;;36.40;45.50;;;;;;5051805;28;20033;-70
2022/07/15 10:31:25;;;;;;;3.30;1.20;;;36.40;45.60;;;;;;5051532;28;20029;-70
2022/07/15 10:34:02;;;;;;;2.95;1.20;;;36.60;45.20;;;;;;5051425;28;20025;-70
2022/07/15 10:36:53;;;;;;;6.40;1.85;;;37.10;45.10;;;;;;5052885;28;20025;-70
2022/07/15 10:39:20;;;;;;;1.73;1.33;;;37.10;44.90;;;;;;5051051;28;20441;-69
2022/07/15 10:42:00;;;;;;;4.10;1.70;;;37.80;44.20;;;;;;5055720;28;20111;-69
2022/07/15 10:44:31;;;;;;;4.30;1.55;;;37.10;44.00;;;;;;5059056;28;20096;-69
2022/07/15 10:47:12;;;;;;;4.03;1.40;;;37.00;44.20;;;;;;5058166;28;20441;-70
2022/07/15 10:49:39;;;;;;;2.50;1.50;;;37.00;44.20;;;;;;5053276;28;20036;-69
2022/07/15 10:52:21;;;;;;;4.72;1.40;;;37.10;44.10;;;;;;5054637;28;20032;-69
2022/07/15 10:54:59;;;;;;;2.97;1.45;;;37.30;44.00;;;;;;5056483;28;20024;-66
2022/07/15 10:57:50;;;;;;;3.63;1.35;;;37.80;44.20;;;;;;5055766;28;20029;-66
2022/07/15 11:00:32;;;;;;;3.10;1.15;;;38.30;43.50;;;;;;5055852;28;20025;-65
2022/07/15 11:03:21;;;;;;;4.72;1.73;;;38.20;43.70;;;;;;5055987;28;20032;-66
2022/07/15 11:05:52;;;;;;;2.67;1.25;;;38.50;43.40;;;;;;5054490;28;20024;-69
2022/07/15 11:08:36;;;;;;;4.97;1.65;;;38.60;43.50;;;;;;5055807;28;20032;-69
2022/07/15 11:11:29;;;;;;;3.55;1.60;;;38.00;43.90;;;;;;5056495;28;20044;-70
2022/07/15 11:13:55;;;;;;;5.10;1.42;;;37.00;43.80;;;;;;5033638;28;20037;-70
2022/07/15 11:16:21;;;;;;;3.25;1.70;;;35.50;44.80;;;;;;5056141;28;20495;-69
2022/07/15 11:18:49;;;;;;;2.58;1.35;;;34.30;45.80;;;;;;5055854;28;20504;-68
2022/07/15 11:21:15;;;;;;;3.20;1.40;;;32.60;47.00;;;;;;5054601;28;20017;-72
2022/07/15 11:23:45;;;;;;;4.43;1.40;;;31.50;48.30;;;;;;5055716;28;20082;-69
2022/07/15 11:26:11;;;;;;;3.38;1.40;;;30.50;49.20;;;;;;5055586;28;20389;-69
2022/07/15 11:28:36;;;;;;;4.35;1.65;;;29.60;50.80;;;;;;5054354;28;20025;-70
2022/07/15 11:31:02;;;;;;;2.90;1.42;;;29.10;51.30;;;;;;5056336;28;20029;-68
2022/07/15 11:33:30;;;;;;;5.10;1.50;;;28.80;51.50;;;;;;5055293;28;20479;-68
2022/07/15 11:36:00;;;;;;;2.35;1.02;;;28.50;52.10;;;;;;5055254;28;20029;-67
2022/07/15 11:38:31;;;;;;;4.20;1.70;;;28.40;52.50;;;;;;5055357;28;20025;-67
2022/07/15 11:46:49;;;;;;;5.63;1.35;;;27.60;53.10;;;;;;5055913;28;20105;-67
2022/07/15 11:49:33;;;;;;;6.95;1.60;;;27.10;53.60;;;;;;5055151;28;20051;-68
2022/07/15 11:52:00;;;;;;;4.15;1.40;;;27.10;53.60;;;;;;5055212;28;20025;-67
2022/07/15 11:54:26;;;;;;;7.28;1.60;;;27.00;53.40;;;;;;5055112;28;20091;-66
2022/07/15 11:56:57;;;;;;;2.25;1.40;;;27.00;53.10;;;;;;5054588;28;20021;-67
2022/07/15 11:59:22;;;;;;;4.85;1.42;;;27.20;53.20;;;;;;5054989;28;20123;-67
2022/07/15 12:01:58;;;;;;;4.97;1.40;;;27.10;53.80;;;;;;5055740;28;20028;-67
2022/07/15 12:04:27;;;;;;;3.15;1.48;;;27.10;53.80;;;;;;5056677;28;20017;-66
2022/07/15 12:06:53;;;;;;;3.22;1.25;;;27.10;54.00;;;;;;5056976;28;20021;-67
2022/07/15 12:09:18;;;;;;;6.22;1.58;;;26.90;53.80;;;;;;5060796;28;20048;-67
2022/07/15 12:11:44;;;;;;;4.90;1.65;;;27.00;53.60;;;;;;5060929;28;20047;-67
2022/07/15 12:14:12;;;;;;;3.25;1.02;;;26.90;53.50;;;;;;5058362;28;20493;-67
2022/07/15 12:16:41;;;;;;;8.98;1.30;;;26.70;54.20;;;;;;5055771;28;20463;-67
2022/07/15 12:19:16;;;;;;;2.88;1.42;;;26.60;54.70;;;;;;5054549;28;20029;-67
2022/07/15 12:21:44;;;;;;;3.78;1.58;;;26.50;54.60;;;;;;5053545;28;20033;-67
2022/07/15 12:24:11;;;;;;;6.20;1.42;;;26.60;54.80;;;;;;5054567;28;20393;-66
2022/07/15 12:26:44;;;;;;;3.35;1.30;;;26.60;54.60;;;;;;5053184;28;20078;-67
2022/07/15 12:29:11;;;;;;;3.92;1.27;;;26.80;54.60;;;;;;5054744;28;20053;-67
2022/07/15 12:31:39;;;;;;;4.18;1.40;;;26.90;54.50;;;;;;5054436;28;20032;-67
2022/07/15 12:34:05;;;;;;;4.55;1.27;;;27.00;54.70;;;;;;5054769;28;20028;-67
2022/07/15 12:36:33;;;;;;;4.15;1.70;;;27.00;54.50;;;;;;5054391;28;20032;-66
2022/07/15 12:39:16;;;;;;;3.60;1.40;;;27.00;55.10;;;;;;5052893;28;20350;-67
2022/07/15 12:41:44;;;;;;;4.18;1.40;;;26.90;54.40;;;;;;5054277;28;20481;-67
2022/07/15 12:44:10;;;;;;;5.22;1.50;;;27.00;54.30;;;;;;5054178;28;20082;-67
2022/07/15 12:47:03;;;;;;;3.17;1.30;;;27.00;54.00;;;;;;5054076;28;20384;-66
2022/07/15 12:49:38;;;;;;;5.47;1.40;;;27.00;53.80;;;;;;5054177;28;20029;-68
2022/07/15 12:52:17;;;;;;;3.70;1.30;;;27.10;54.50;;;;;;5053574;28;20067;-67
2022/07/15 12:54:43;;;;;;;4.30;1.60;;;27.00;53.80;;;;;;5054484;28;20485;-67
2022/07/15 12:57:38;;;;;;;3.00;1.50;;;27.00;54.50;;;;;;5056130;28;20017;-66
2022/07/15 13:00:17;;;;;;;4.38;1.65;;;26.90;54.70;;;;;;4994005;28;20053;-68
2022/07/15 13:03:03;;;;;;;3.58;1.40;;;26.60;54.90;;;;;;4992969;28;20392;-67
2022/07/15 13:05:31;;;;;;;2.38;1.52;;;26.50;55.10;;;;;;4976866;28;20026;-67
2022/07/15 13:07:57;;;;;;;4.20;1.70;;;26.60;55.50;;;;;;4992925;28;20419;-70